createdAt,value
2023-04-27T00:02:43.237Z,8.90
2023-04-27T00:05:30.366Z,8.90
2023-04-27T00:08:17.304Z,8.90
2023-04-27T00:11:04.419Z,8.90
2023-04-27T00:13:51.449Z,9.00
2023-04-27T00:16:38.278Z,9.00
2023-04-27T00:19:25.154Z,9.00
2023-04-27T00:22:12.114Z,9.00
2023-04-27T00:24:58.936Z,9.00
2023-04-27T00:27:45.986Z,8.90
2023-04-27T00:30:32.844Z,8.90
2023-04-27T00:33:19.746Z,8.90
2023-04-27T00:36:07.102Z,8.90
2023-04-27T00:38:54.117Z,9.00
2023-04-27T00:41:41.134Z,9.00
2023-04-27T00:44:28.652Z,9.00
2023-04-27T00:47:17.360Z,9.00
2023-04-27T00:50:06.245Z,9.00
2023-04-27T00:52:53.553Z,9.00
2023-04-27T00:55:40.732Z,9.00
2023-04-27T00:58:27.700Z,9.10
2023-04-27T01:01:14.717Z,9.10
2023-04-27T01:04:02.163Z,9.10
2023-04-27T01:06:49.370Z,9.20
2023-04-27T01:09:36.673Z,9.20
2023-04-27T01:12:23.583Z,9.20
2023-04-27T01:15:11.148Z,9.30
2023-04-27T01:17:59.641Z,9.10
2023-04-27T01:20:46.562Z,9.00
2023-04-27T01:23:33.359Z,8.90
2023-04-27T01:26:20.322Z,8.90
2023-04-27T01:29:07.271Z,8.90
2023-04-27T01:31:54.172Z,8.80
2023-04-27T01:34:41.088Z,8.80
2023-04-27T01:37:27.977Z,8.80
2023-04-27T01:40:15.056Z,8.80
2023-04-27T01:43:01.839Z,8.70
2023-04-27T01:45:48.695Z,8.70
2023-04-27T01:48:36.129Z,8.60
2023-04-27T01:51:22.951Z,8.50
2023-04-27T01:54:09.841Z,8.50
2023-04-27T01:56:58.661Z,8.50
2023-04-27T01:59:45.536Z,8.60
2023-04-27T02:02:33.036Z,8.70
2023-04-27T02:05:20.669Z,8.70
2023-04-27T02:08:07.718Z,8.70
2023-04-27T02:10:54.564Z,8.70
2023-04-27T02:13:41.432Z,8.70
2023-04-27T02:16:28.792Z,8.60
2023-04-27T02:19:16.014Z,8.60
2023-04-27T02:22:03.645Z,8.50
2023-04-27T02:24:50.430Z,8.40
2023-04-27T02:27:38.197Z,8.40
2023-04-27T02:30:25.480Z,8.40
2023-04-27T02:33:12.700Z,8.50
2023-04-27T02:35:59.573Z,8.60
2023-04-27T02:38:46.612Z,8.60
2023-04-27T02:41:33.579Z,8.60
2023-04-27T02:44:20.397Z,8.70
2023-04-27T02:47:07.332Z,8.60
2023-04-27T02:49:54.375Z,8.70
2023-04-27T02:52:41.201Z,8.80
2023-04-27T02:55:29.054Z,8.80
2023-04-27T02:58:16.782Z,8.70
2023-04-27T03:01:03.701Z,8.70
2023-04-27T03:03:50.602Z,8.70
2023-04-27T03:06:37.548Z,8.70
2023-04-27T03:09:24.507Z,8.60
2023-04-27T03:12:11.355Z,8.60
2023-04-27T03:14:59.666Z,8.70
2023-04-27T03:17:46.519Z,8.70
2023-04-27T03:20:33.391Z,8.70
2023-04-27T03:23:20.234Z,8.70
2023-04-27T03:26:12.059Z,8.60
2023-04-27T03:28:58.929Z,8.50
2023-04-27T03:31:45.848Z,8.50
2023-04-27T03:34:32.967Z,8.50
2023-04-27T03:37:19.794Z,8.70
2023-04-27T03:40:10.028Z,8.70
2023-04-27T03:42:59.024Z,8.80
2023-04-27T03:45:46.222Z,8.80
2023-04-27T03:48:33.133Z,8.70
2023-04-27T03:51:20.038Z,8.60
2023-04-27T03:54:06.896Z,8.60
2023-04-27T03:56:53.718Z,8.50
2023-04-27T03:59:40.616Z,8.50
2023-04-27T04:02:27.676Z,8.50
2023-04-27T04:05:15.371Z,8.50
2023-04-27T04:08:03.608Z,8.60
2023-04-27T04:10:50.432Z,8.50
2023-04-27T04:13:37.305Z,8.60
2023-04-27T04:16:24.248Z,8.60
2023-04-27T04:19:11.465Z,8.70
2023-04-27T04:21:58.409Z,8.70
2023-04-27T04:24:45.249Z,8.60
2023-04-27T04:27:32.293Z,8.70
2023-04-27T04:30:20.159Z,8.60
2023-04-27T04:33:06.881Z,8.70
2023-04-27T04:35:54.493Z,8.70
2023-04-27T04:38:41.380Z,8.60
2023-04-27T04:41:28.555Z,8.70
2023-04-27T04:44:16.298Z,8.70
2023-04-27T04:47:03.068Z,8.70
2023-04-27T04:49:49.995Z,8.60
2023-04-27T04:52:37.351Z,8.60
2023-04-27T04:55:28.117Z,8.60
2023-04-27T04:58:14.992Z,8.60
2023-04-27T05:01:01.954Z,8.60
2023-04-27T05:03:48.939Z,8.60
2023-04-27T05:06:35.889Z,8.60
2023-04-27T05:09:22.890Z,8.60
2023-04-27T05:12:10.181Z,8.70
2023-04-27T05:14:57.344Z,8.80
2023-04-27T05:17:44.248Z,8.80
2023-04-27T05:20:34.438Z,8.90
2023-04-27T05:23:21.248Z,9.00
2023-04-27T05:26:15.955Z,9.00
2023-04-27T05:29:02.760Z,8.80
2023-04-27T05:31:49.705Z,8.60
2023-04-27T05:34:36.809Z,8.60
2023-04-27T05:37:23.707Z,8.60
2023-04-27T05:40:11.041Z,8.60
2023-04-27T05:42:57.954Z,8.70
2023-04-27T05:45:44.771Z,8.80
2023-04-27T05:48:31.689Z,8.90
2023-04-27T05:51:18.468Z,9.10
2023-04-27T05:54:05.651Z,9.20
2023-04-27T05:56:52.534Z,9.20
2023-04-27T05:59:39.385Z,9.30
2023-04-27T06:02:26.409Z,9.40
2023-04-27T06:05:13.510Z,9.40
2023-04-27T06:08:00.568Z,9.50
2023-04-27T06:10:47.502Z,9.60
2023-04-27T06:13:34.337Z,9.70
2023-04-27T06:16:21.439Z,9.60
2023-04-27T06:19:08.320Z,9.60
2023-04-27T06:21:55.867Z,9.70
2023-04-27T06:24:42.761Z,9.90
2023-04-27T06:27:29.733Z,9.90
2023-04-27T06:30:16.877Z,9.90
2023-04-27T06:33:03.765Z,9.90
2023-04-27T06:35:50.939Z,10.00
2023-04-27T06:38:37.798Z,10.20
2023-04-27T06:41:26.272Z,10.30
2023-04-27T06:44:13.054Z,10.40
2023-04-27T06:46:59.848Z,10.50
2023-04-27T06:49:47.964Z,10.40
2023-04-27T06:52:36.410Z,10.50
2023-04-27T06:55:23.958Z,10.70
2023-04-27T06:58:10.947Z,10.70
2023-04-27T07:00:57.876Z,10.70
2023-04-27T07:03:44.812Z,10.70
2023-04-27T07:06:31.835Z,10.80
2023-04-27T07:09:26.949Z,10.80
2023-04-27T07:12:14.549Z,10.70
2023-04-27T07:15:03.627Z,10.70
2023-04-27T07:17:54.090Z,10.80
2023-04-27T07:20:42.283Z,10.90
2023-04-27T07:23:29.112Z,11.10
2023-04-27T07:26:15.986Z,11.30
2023-04-27T07:29:11.125Z,11.40
2023-04-27T07:32:07.948Z,11.50
2023-04-27T07:34:58.739Z,11.50
2023-04-27T07:37:45.908Z,11.50
2023-04-27T07:40:32.916Z,11.50
2023-04-27T07:43:20.295Z,11.50
2023-04-27T07:46:07.736Z,11.70
2023-04-27T07:48:55.272Z,12.10
2023-04-27T07:51:43.065Z,12.40
2023-04-27T07:54:29.734Z,12.80
2023-04-27T07:57:16.740Z,13.20
2023-04-27T08:00:07.050Z,13.50
2023-04-27T08:02:54.737Z,13.40
2023-04-27T08:05:42.146Z,13.30
2023-04-27T08:08:29.818Z,13.30
2023-04-27T08:11:16.741Z,13.30
2023-04-27T08:14:03.647Z,13.20
2023-04-27T08:16:52.095Z,13.20
2023-04-27T08:19:39.199Z,13.30
2023-04-27T08:22:26.010Z,13.40
2023-04-27T08:25:12.830Z,13.60
2023-04-27T08:27:59.623Z,13.70
2023-04-27T08:30:46.478Z,13.70
2023-04-27T08:33:33.264Z,13.80
2023-04-27T08:36:24.468Z,13.80
2023-04-27T08:39:11.614Z,13.70
2023-04-27T08:41:58.719Z,13.60
2023-04-27T08:44:45.876Z,13.50
2023-04-27T08:47:42.484Z,13.40
2023-04-27T08:50:31.490Z,13.30
2023-04-27T08:53:22.285Z,13.00
2023-04-27T08:56:09.118Z,12.80
2023-04-27T08:58:57.315Z,12.60
2023-04-27T09:01:46.246Z,12.70
2023-04-27T09:04:40.833Z,12.90
2023-04-27T09:07:28.646Z,13.00
2023-04-27T09:10:15.956Z,13.30
2023-04-27T09:13:02.735Z,13.50
2023-04-27T09:15:51.945Z,13.80
2023-04-27T09:18:42.538Z,14.20
2023-04-27T09:21:33.993Z,14.50
2023-04-27T09:24:20.854Z,14.90
2023-04-27T09:27:08.947Z,15.10
2023-04-27T09:29:55.781Z,15.30
2023-04-27T09:32:59.495Z,15.30
2023-04-27T09:35:47.546Z,15.20
2023-04-27T09:38:34.743Z,15.10
2023-04-27T09:41:22.483Z,14.90
2023-04-27T09:44:09.303Z,14.70
2023-04-27T09:46:58.696Z,14.60
2023-04-27T09:49:45.708Z,14.60
2023-04-27T09:52:33.279Z,14.60
2023-04-27T09:55:41.176Z,14.80
2023-04-27T09:58:38.345Z,14.90
2023-04-27T10:01:41.063Z,15.20
2023-04-27T10:05:05.572Z,15.50
2023-04-27T10:07:53.464Z,15.80
2023-04-27T10:10:48.072Z,16.00
2023-04-27T10:13:34.938Z,16.10
2023-04-27T10:16:22.685Z,16.20
2023-04-27T10:19:10.368Z,16.20
2023-04-27T10:22:05.382Z,16.10
2023-04-27T10:24:52.404Z,16.00
2023-04-27T10:27:39.964Z,15.90
2023-04-27T10:30:35.102Z,15.90
2023-04-27T10:33:23.337Z,15.80
2023-04-27T10:36:16.128Z,15.60
2023-04-27T10:39:06.393Z,15.20
2023-04-27T10:41:56.137Z,15.40
2023-04-27T10:44:42.974Z,16.00
2023-04-27T10:47:41.613Z,16.40
2023-04-27T10:50:28.744Z,16.50
2023-04-27T10:53:17.616Z,16.60
2023-04-27T10:56:08.551Z,16.70
2023-04-27T10:58:56.305Z,16.20
2023-04-27T11:01:43.177Z,16.00
2023-04-27T11:04:38.605Z,15.90
2023-04-27T11:07:27.698Z,16.00
2023-04-27T11:10:21.612Z,16.00
2023-04-27T11:13:16.574Z,16.10
2023-04-27T11:16:05.246Z,16.30
2023-04-27T11:18:52.054Z,16.50
2023-04-27T11:21:39.154Z,16.80
2023-04-27T11:24:26.270Z,17.20
2023-04-27T11:27:13.277Z,17.60
2023-04-27T11:30:00.117Z,18.30
2023-04-27T11:32:47.337Z,19.80
2023-04-27T11:35:34.675Z,21.10
2023-04-27T11:38:22.062Z,22.30
2023-04-27T11:41:09.204Z,23.50
2023-04-27T11:44:03.454Z,24.30
2023-04-27T11:46:50.359Z,23.70
2023-04-27T11:49:37.703Z,22.50
2023-04-27T11:52:34.132Z,21.20
2023-04-27T11:55:22.402Z,19.90
2023-04-27T11:58:18.922Z,19.10
2023-04-27T12:01:06.402Z,18.80
2023-04-27T12:03:53.867Z,19.70
2023-04-27T12:06:41.356Z,23.50
2023-04-27T12:09:29.015Z,25.00
2023-04-27T12:12:21.900Z,24.40
2023-04-27T12:15:09.394Z,23.20
2023-04-27T12:17:56.259Z,21.70
2023-04-27T12:20:43.369Z,20.00
2023-04-27T12:23:30.270Z,18.70
2023-04-27T12:26:17.193Z,17.90
2023-04-27T12:29:04.420Z,17.50
2023-04-27T12:31:51.863Z,17.40
2023-04-27T12:34:39.590Z,17.30
2023-04-27T12:37:27.084Z,16.70
2023-04-27T12:40:14.349Z,16.40
2023-04-27T12:43:01.593Z,16.20
2023-04-27T12:45:48.517Z,16.10
2023-04-27T12:48:35.379Z,16.20
2023-04-27T12:51:22.265Z,16.30
2023-04-27T12:54:11.128Z,16.60
2023-04-27T12:56:58.068Z,17.00
2023-04-27T12:59:45.084Z,17.30
2023-04-27T13:02:32.129Z,17.40
2023-04-27T13:05:19.214Z,16.90
2023-04-27T13:08:06.162Z,16.70
2023-04-27T13:10:53.556Z,16.40
2023-04-27T13:13:41.249Z,16.30
2023-04-27T13:16:28.142Z,16.20
2023-04-27T13:19:14.986Z,16.20
2023-04-27T13:22:03.934Z,16.20
2023-04-27T13:24:50.803Z,16.20
2023-04-27T13:27:37.848Z,16.20
2023-04-27T13:30:24.743Z,16.30
2023-04-27T13:33:22.522Z,16.20
2023-04-27T13:36:12.564Z,16.20
2023-04-27T13:38:59.427Z,16.40
2023-04-27T13:41:46.296Z,16.80
2023-04-27T13:44:33.211Z,17.40
2023-04-27T13:47:20.098Z,17.40
2023-04-27T13:50:09.172Z,17.60
2023-04-27T13:52:56.048Z,18.00
2023-04-27T13:55:43.539Z,18.30
2023-04-27T13:58:32.299Z,18.50
2023-04-27T14:01:20.133Z,18.30
2023-04-27T14:04:07.503Z,18.20
2023-04-27T14:06:54.527Z,18.20
2023-04-27T14:09:41.974Z,18.40
2023-04-27T14:12:28.780Z,18.50
2023-04-27T14:15:15.967Z,18.50
2023-04-27T14:18:04.931Z,18.50
2023-04-27T14:20:54.624Z,18.40
2023-04-27T14:23:41.473Z,18.30
2023-04-27T14:26:28.809Z,18.30
2023-04-27T14:29:16.188Z,18.40
2023-04-27T14:32:04.511Z,18.30
2023-04-27T14:34:51.835Z,18.10
2023-04-27T14:37:38.667Z,18.10
2023-04-27T14:40:25.762Z,18.10
2023-04-27T14:43:12.630Z,18.00
2023-04-27T14:46:05.124Z,17.90
2023-04-27T14:48:59.133Z,18.10
2023-04-27T14:51:45.986Z,18.20
2023-04-27T14:54:33.256Z,18.20
2023-04-27T14:57:20.174Z,18.10
2023-04-27T15:00:10.039Z,18.00
2023-04-27T15:02:57.100Z,17.80
2023-04-27T15:05:44.332Z,17.60
2023-04-27T15:08:33.956Z,17.50
2023-04-27T15:11:22.112Z,17.40
2023-04-27T15:14:08.875Z,17.50
2023-04-27T15:16:55.815Z,17.30
2023-04-27T15:19:42.817Z,17.20
2023-04-27T15:22:29.828Z,16.90
2023-04-27T15:25:16.741Z,16.90
2023-04-27T15:28:03.767Z,17.20
2023-04-27T15:30:50.923Z,17.30
2023-04-27T15:33:37.763Z,17.30
2023-04-27T15:36:26.779Z,16.90
2023-04-27T15:39:13.933Z,16.80
2023-04-27T15:42:02.020Z,16.70
2023-04-27T15:44:48.761Z,16.70
2023-04-27T15:47:35.719Z,16.70
2023-04-27T15:50:23.020Z,16.80
2023-04-27T15:53:09.891Z,16.60
2023-04-27T15:55:56.922Z,16.60
2023-04-27T15:58:43.747Z,16.70
2023-04-27T16:01:30.762Z,16.80
2023-04-27T16:04:20.231Z,16.80
2023-04-27T16:07:07.485Z,16.90
2023-04-27T16:09:54.401Z,16.90
2023-04-27T16:12:41.601Z,17.00
2023-04-27T16:15:28.542Z,17.30
2023-04-27T16:18:15.424Z,17.60
2023-04-27T16:21:02.211Z,17.60
2023-04-27T16:23:49.063Z,17.30
2023-04-27T16:26:38.221Z,17.10
2023-04-27T16:29:25.068Z,16.90
2023-04-27T16:32:11.933Z,16.80
2023-04-27T16:34:59.035Z,17.00
2023-04-27T16:37:45.870Z,17.10
2023-04-27T16:40:33.901Z,17.30
2023-04-27T16:43:20.820Z,17.40
2023-04-27T16:46:10.507Z,17.40
2023-04-27T16:48:57.461Z,17.20
2023-04-27T16:51:44.885Z,16.90
2023-04-27T16:54:31.707Z,16.70
2023-04-27T16:57:18.778Z,16.50
2023-04-27T17:00:06.627Z,16.30
2023-04-27T17:02:55.498Z,16.10
2023-04-27T17:05:44.749Z,15.90
2023-04-27T17:08:31.769Z,15.80
2023-04-27T17:11:21.399Z,15.80
2023-04-27T17:14:08.310Z,15.70
2023-04-27T17:16:55.299Z,15.70
2023-04-27T17:19:42.271Z,15.70
2023-04-27T17:22:30.044Z,15.70
2023-04-27T17:25:16.872Z,15.60
2023-04-27T17:28:03.879Z,15.60
2023-04-27T17:30:50.832Z,15.60
2023-04-27T17:33:39.245Z,15.60
2023-04-27T17:36:26.569Z,15.60
2023-04-27T17:39:14.699Z,15.50
2023-04-27T17:42:01.975Z,15.50
2023-04-27T17:44:48.809Z,15.40
2023-04-27T17:47:36.007Z,15.30
2023-04-27T17:50:22.844Z,15.20
2023-04-27T17:53:10.082Z,15.20
2023-04-27T17:55:56.893Z,15.20
2023-04-27T17:58:43.705Z,15.10
2023-04-27T18:01:30.681Z,15.10
2023-04-27T18:04:17.773Z,15.00
2023-04-27T18:07:04.910Z,15.00
2023-04-27T18:09:51.885Z,14.90
2023-04-27T18:12:38.759Z,14.80
2023-04-27T18:15:25.830Z,14.70
2023-04-27T18:18:16.824Z,14.60
2023-04-27T18:21:03.874Z,14.50
2023-04-27T18:23:50.951Z,14.50
2023-04-27T18:26:37.861Z,14.40
2023-04-27T18:29:24.816Z,14.30
2023-04-27T18:32:11.817Z,14.10
2023-04-27T18:34:58.758Z,13.90
2023-04-27T18:37:48.324Z,13.90
2023-04-27T18:40:36.304Z,13.80
2023-04-27T18:43:23.203Z,13.70
2023-04-27T18:46:10.061Z,13.60
2023-04-27T18:48:56.939Z,13.60
2023-04-27T18:51:43.843Z,13.60
2023-04-27T18:54:30.639Z,13.60
2023-04-27T18:57:17.448Z,13.60
2023-04-27T19:00:05.953Z,13.50
2023-04-27T19:02:52.964Z,13.50
2023-04-27T19:05:42.952Z,13.50
2023-04-27T19:08:30.003Z,13.40
2023-04-27T19:11:19.004Z,13.30
2023-04-27T19:14:05.963Z,13.30
2023-04-27T19:16:52.920Z,13.20
2023-04-27T19:19:39.791Z,13.30
2023-04-27T19:22:27.977Z,13.20
2023-04-27T19:25:14.831Z,13.20
2023-04-27T19:28:01.825Z,13.10
2023-04-27T19:30:50.084Z,13.00
2023-04-27T19:33:37.053Z,13.00
2023-04-27T19:36:23.862Z,13.00
2023-04-27T19:39:11.328Z,12.90
2023-04-27T19:41:58.848Z,12.80
2023-04-27T19:44:45.734Z,12.60
2023-04-27T19:47:32.933Z,12.50
2023-04-27T19:50:20.050Z,12.40
2023-04-27T19:53:06.896Z,12.40
2023-04-27T19:55:53.865Z,12.50
2023-04-27T19:58:40.813Z,12.40
2023-04-27T20:01:28.348Z,12.50
2023-04-27T20:04:16.353Z,12.50
2023-04-27T20:07:05.734Z,12.60
2023-04-27T20:09:52.836Z,12.60
2023-04-27T20:12:51.319Z,12.60
2023-04-27T20:15:43.244Z,12.60
2023-04-27T20:18:31.907Z,12.50
2023-04-27T20:21:18.827Z,12.40
2023-04-27T20:24:05.947Z,12.40
2023-04-27T20:26:52.856Z,12.40
2023-04-27T20:29:40.808Z,12.30
2023-04-27T20:32:27.685Z,12.30
2023-04-27T20:35:14.749Z,12.20
2023-04-27T20:38:01.923Z,12.20
2023-04-27T20:40:50.301Z,12.20
2023-04-27T20:43:39.085Z,12.20
2023-04-27T20:46:26.301Z,12.10
2023-04-27T20:49:16.857Z,12.00
2023-04-27T20:52:06.141Z,11.90
2023-04-27T20:54:53.704Z,11.90
2023-04-27T20:57:40.576Z,12.00
2023-04-27T21:00:27.484Z,12.10
2023-04-27T21:03:14.442Z,12.10
2023-04-27T21:06:01.414Z,12.00
2023-04-27T21:08:48.271Z,12.00
2023-04-27T21:11:35.458Z,11.90
2023-04-27T21:14:22.360Z,11.80
2023-04-27T21:17:09.442Z,11.80
2023-04-27T21:19:58.117Z,11.70
2023-04-27T21:22:44.993Z,11.60
2023-04-27T21:25:31.869Z,11.60
2023-04-27T21:28:18.688Z,11.50
2023-04-27T21:31:06.574Z,11.50
2023-04-27T21:33:53.500Z,11.60
2023-04-27T21:36:41.815Z,11.50
2023-04-27T21:39:28.615Z,11.60
2023-04-27T21:42:16.325Z,11.60
2023-04-27T21:45:04.508Z,11.60
2023-04-27T21:47:51.381Z,11.60
2023-04-27T21:50:38.373Z,11.50
2023-04-27T21:53:25.767Z,11.60
2023-04-27T21:56:12.581Z,11.70
2023-04-27T21:58:59.349Z,11.70
2023-04-27T22:01:46.653Z,11.70
2023-04-27T22:04:38.473Z,11.60
2023-04-27T22:07:26.630Z,11.50
2023-04-27T22:10:13.581Z,11.50
2023-04-27T22:13:08.301Z,11.50
2023-04-27T22:16:04.585Z,11.50
2023-04-27T22:18:51.850Z,11.50
2023-04-27T22:21:38.898Z,11.50
2023-04-27T22:24:25.910Z,11.40
2023-04-27T22:27:13.075Z,11.40
2023-04-27T22:29:59.931Z,11.40
2023-04-27T22:32:46.833Z,11.40
2023-04-27T22:35:34.427Z,11.30
2023-04-27T22:38:21.383Z,11.30
2023-04-27T22:41:08.272Z,11.20
2023-04-27T22:43:55.244Z,11.20
2023-04-27T22:46:43.799Z,11.20
2023-04-27T22:49:30.677Z,11.40
2023-04-27T22:52:17.968Z,11.40
2023-04-27T22:55:05.318Z,11.40
2023-04-27T22:57:53.931Z,11.30
2023-04-27T23:00:40.834Z,11.30
2023-04-27T23:03:28.335Z,11.20
2023-04-27T23:06:15.403Z,11.20
2023-04-27T23:09:03.163Z,11.20
2023-04-27T23:11:50.908Z,11.20
2023-04-27T23:14:37.959Z,11.20
2023-04-27T23:17:31.753Z,11.10
2023-04-27T23:20:28.292Z,11.10
2023-04-27T23:23:16.238Z,11.10
2023-04-27T23:26:03.075Z,11.00
2023-04-27T23:28:49.906Z,11.00
2023-04-27T23:31:36.872Z,11.10
2023-04-27T23:34:23.729Z,11.10
2023-04-27T23:37:10.684Z,11.10
2023-04-27T23:39:57.503Z,11.00
2023-04-27T23:42:44.369Z,11.00
2023-04-27T23:45:31.184Z,11.00
2023-04-27T23:48:18.810Z,11.00
2023-04-27T23:51:05.828Z,11.10
2023-04-27T23:53:52.787Z,11.00
2023-04-27T23:56:39.655Z,11.00
2023-04-27T23:59:26.542Z,11.00
